createdAt,value
2018-03-17T00:01:48.913Z,94.70
2018-03-17T00:04:15.732Z,94.40
2018-03-17T00:06:41.798Z,94.40
2018-03-17T00:09:07.859Z,94.50
2018-03-17T00:11:34.666Z,94.50
2018-03-17T00:14:00.747Z,94.50
2018-03-17T00:16:27.592Z,94.60
2018-03-17T00:18:54.411Z,94.70
2018-03-17T00:21:20.483Z,94.70
2018-03-17T00:23:46.563Z,94.80
2018-03-17T00:26:12.654Z,94.40
2018-03-17T00:28:39.471Z,94.90
2018-03-17T00:31:05.551Z,94.60
2018-03-17T00:33:32.370Z,94.80
2018-03-17T00:35:58.438Z,94.70
2018-03-17T00:38:25.268Z,95.00
2018-03-17T00:40:51.326Z,95.00
2018-03-17T00:43:18.167Z,95.10
2018-03-17T00:45:44.238Z,94.70
2018-03-17T00:48:11.057Z,94.40
2018-03-17T00:50:37.137Z,94.40
2018-03-17T00:53:03.230Z,94.70
2018-03-17T00:55:29.323Z,94.50
2018-03-17T00:57:55.399Z,94.70
2018-03-17T01:00:21.490Z,94.40
2018-03-17T01:02:47.562Z,94.70
2018-03-17T01:05:13.655Z,93.80
2018-03-17T01:07:40.482Z,94.50
2018-03-17T01:10:06.571Z,94.50
2018-03-17T01:12:32.652Z,93.90
2018-03-17T01:14:58.735Z,94.20
2018-03-17T01:17:24.840Z,94.10
2018-03-17T01:19:51.659Z,94.20
2018-03-17T01:22:17.768Z,93.90
2018-03-17T01:24:43.854Z,93.90
2018-03-17T01:27:09.948Z,94.30
2018-03-17T01:29:36.044Z,94.40
2018-03-17T01:32:02.886Z,94.60
2018-03-17T01:34:28.970Z,94.60
2018-03-17T01:36:55.066Z,93.60
2018-03-17T01:39:21.146Z,94.20
2018-03-17T01:41:47.222Z,93.80
2018-03-17T01:44:13.372Z,94.40
2018-03-17T01:46:39.472Z,94.30
2018-03-17T01:49:05.562Z,94.40
2018-03-17T01:51:31.643Z,94.70
2018-03-17T01:54:16.366Z,94.60
2018-03-17T01:56:42.433Z,94.40
2018-03-17T01:59:09.248Z,94.00
2018-03-17T02:01:35.327Z,94.00
2018-03-17T02:04:02.153Z,94.60
2018-03-17T02:06:28.231Z,94.60
2018-03-17T02:08:54.306Z,94.40
2018-03-17T02:11:20.379Z,94.80
2018-03-17T02:13:47.195Z,94.40
2018-03-17T02:16:13.279Z,94.40
2018-03-17T02:18:40.088Z,93.90
2018-03-17T02:21:06.172Z,93.80
2018-03-17T02:23:32.978Z,94.30
2018-03-17T02:25:59.061Z,93.90
2018-03-17T02:28:25.867Z,94.00
2018-03-17T02:30:51.955Z,93.90
2018-03-17T02:33:18.018Z,93.30
2018-03-17T02:35:44.100Z,94.10
2018-03-17T02:38:10.183Z,94.20
2018-03-17T02:40:36.279Z,94.40
2018-03-17T02:43:02.349Z,93.70
2018-03-17T02:45:28.435Z,94.00
2018-03-17T02:47:54.504Z,93.50
2018-03-17T02:50:49.254Z,93.80
2018-03-17T02:53:15.358Z,93.80
2018-03-17T02:55:42.174Z,94.40
2018-03-17T02:58:08.255Z,94.40
2018-03-17T03:00:35.083Z,94.10
2018-03-17T03:03:02.663Z,94.10
2018-03-17T03:05:28.751Z,94.10
2018-03-17T03:07:54.845Z,94.30
2018-03-17T03:10:21.671Z,93.30
2018-03-17T03:12:47.764Z,93.30
2018-03-17T03:15:13.862Z,93.90
2018-03-17T03:17:39.958Z,94.00
2018-03-17T03:20:06.051Z,93.70
2018-03-17T03:22:32.870Z,93.90
2018-03-17T03:24:58.939Z,93.90
2018-03-17T03:27:25.775Z,93.90
2018-03-17T03:29:51.876Z,93.60
2018-03-17T03:32:17.967Z,93.40
2018-03-17T03:34:44.047Z,93.80
2018-03-17T03:37:10.151Z,94.10
2018-03-17T03:39:36.974Z,94.00
2018-03-17T03:42:03.050Z,94.00
2018-03-17T03:44:29.886Z,93.90
2018-03-17T03:46:55.983Z,93.90
2018-03-17T03:49:22.070Z,93.50
2018-03-17T03:51:48.891Z,94.20
2018-03-17T03:54:14.991Z,94.20
2018-03-17T03:56:41.071Z,93.90
2018-03-17T03:59:07.154Z,93.60
2018-03-17T04:01:33.970Z,94.10
2018-03-17T04:04:00.059Z,94.10
2018-03-17T04:06:26.173Z,93.80
2018-03-17T04:08:52.994Z,93.10
2018-03-17T04:11:19.088Z,93.10
2018-03-17T04:13:45.176Z,94.00
2018-03-17T04:16:11.262Z,94.20
2018-03-17T04:18:37.339Z,94.10
2018-03-17T04:21:03.434Z,93.60
2018-03-17T04:23:29.522Z,94.20
2018-03-17T04:25:55.611Z,94.30
2018-03-17T04:28:21.712Z,93.90
2018-03-17T04:30:47.795Z,94.00
2018-03-17T04:33:13.907Z,93.80
2018-03-17T04:35:40.723Z,94.10
2018-03-17T04:38:06.810Z,94.10
2018-03-17T04:40:32.900Z,93.80
2018-03-17T04:42:59.006Z,93.80
2018-03-17T04:45:25.098Z,93.70
2018-03-17T04:47:51.931Z,94.00
2018-03-17T04:50:18.019Z,94.00
2018-03-17T04:52:44.099Z,93.90
2018-03-17T04:55:10.203Z,93.80
2018-03-17T04:57:36.286Z,93.50
2018-03-17T05:00:02.415Z,94.00
2018-03-17T05:02:28.470Z,93.70
2018-03-17T05:04:54.550Z,94.10
2018-03-17T05:07:20.652Z,93.90
2018-03-17T05:09:46.722Z,94.10
2018-03-17T05:12:12.823Z,93.50
2018-03-17T05:14:38.898Z,93.00
2018-03-17T05:17:04.979Z,93.90
2018-03-17T05:19:31.061Z,93.10
2018-03-17T05:21:57.163Z,93.90
2018-03-17T05:24:23.243Z,93.50
2018-03-17T05:26:49.350Z,94.00
2018-03-17T05:29:16.194Z,93.40
2018-03-17T05:31:43.019Z,93.70
2018-03-17T05:34:09.103Z,93.70
2018-03-17T05:36:35.938Z,93.60
2018-03-17T05:39:02.028Z,93.30
2018-03-17T05:41:28.115Z,93.60
2018-03-17T05:43:54.214Z,93.70
2018-03-17T05:46:20.311Z,93.30
2018-03-17T05:48:47.134Z,93.50
2018-03-17T05:51:13.235Z,93.40
2018-03-17T05:53:39.340Z,93.80
2018-03-17T05:56:06.168Z,93.50
2018-03-17T05:58:32.255Z,93.50
2018-03-17T06:00:58.347Z,93.40
2018-03-17T06:03:24.430Z,93.50
2018-03-17T06:05:50.523Z,93.30
2018-03-17T06:08:16.620Z,93.80
2018-03-17T06:10:42.723Z,93.60
2018-03-17T06:13:09.546Z,93.20
2018-03-17T06:15:35.646Z,93.20
2018-03-17T06:18:01.759Z,93.00
2018-03-17T06:20:28.619Z,93.60
2018-03-17T06:22:54.732Z,93.60
2018-03-17T06:25:20.856Z,93.60
2018-03-17T06:27:46.914Z,93.10
2018-03-17T06:30:13.745Z,92.90
2018-03-17T06:32:39.847Z,93.00
2018-03-17T06:35:05.923Z,93.20
2018-03-17T06:37:32.025Z,93.10
2018-03-17T06:39:58.116Z,93.80
2018-03-17T06:42:24.948Z,93.80
2018-03-17T06:44:51.036Z,93.80
2018-03-17T06:47:17.124Z,92.70
2018-03-17T06:49:43.215Z,93.10
2018-03-17T06:52:09.290Z,93.10
2018-03-17T06:54:35.366Z,93.50
2018-03-17T06:57:02.173Z,92.80
2018-03-17T06:59:28.258Z,92.80
2018-03-17T07:01:55.064Z,93.50
2018-03-17T07:04:21.143Z,93.50
2018-03-17T07:06:47.951Z,93.50
2018-03-17T07:09:14.059Z,93.80
2018-03-17T07:11:40.143Z,93.60
2018-03-17T07:14:07.054Z,93.70
2018-03-17T07:16:33.176Z,93.50
2018-03-17T07:18:59.215Z,94.00
2018-03-17T07:21:26.027Z,93.30
2018-03-17T07:23:52.090Z,93.20
2018-03-17T07:26:18.179Z,93.90
2018-03-17T07:28:48.263Z,92.20
2018-03-17T07:31:15.075Z,93.00
2018-03-17T07:33:41.152Z,92.80
2018-03-17T07:36:07.244Z,93.60
2018-03-17T07:38:33.315Z,93.80
2018-03-17T07:40:59.411Z,93.90
2018-03-17T07:43:25.488Z,93.80
2018-03-17T07:45:51.554Z,93.60
2018-03-17T07:48:18.358Z,93.50
2018-03-17T07:50:44.422Z,93.50
2018-03-17T07:53:10.510Z,93.50
2018-03-17T07:55:36.579Z,93.90
2018-03-17T07:58:02.668Z,91.60
2018-03-17T08:00:28.748Z,93.80
2018-03-17T08:02:54.839Z,93.00
2018-03-17T08:05:20.916Z,93.20
2018-03-17T08:07:47.017Z,93.30
2018-03-17T08:10:13.083Z,93.40
2018-03-17T08:12:39.151Z,91.80
2018-03-17T08:15:05.236Z,92.70
2018-03-17T08:17:31.307Z,92.90
2018-03-17T08:19:57.390Z,91.60
2018-03-17T08:22:24.281Z,92.30
2018-03-17T08:24:50.279Z,92.20
2018-03-17T08:27:17.095Z,94.20
2018-03-17T08:29:43.170Z,94.20
2018-03-17T08:32:09.995Z,93.60
2018-03-17T08:34:36.094Z,93.20
2018-03-17T08:37:02.174Z,93.60
2018-03-17T08:39:28.291Z,93.10
2018-03-17T08:41:54.351Z,93.80
2018-03-17T08:44:20.428Z,93.80
2018-03-17T08:46:46.511Z,93.00
2018-03-17T08:49:12.587Z,92.40
2018-03-17T08:51:39.399Z,92.60
2018-03-17T08:54:05.470Z,92.60
2018-03-17T08:56:31.547Z,93.40
2018-03-17T08:58:57.628Z,93.10
2018-03-17T09:01:23.732Z,92.70
2018-03-17T09:03:49.804Z,92.40
2018-03-17T09:06:15.870Z,91.70
2018-03-17T09:08:42.687Z,91.70
2018-03-17T09:11:08.764Z,91.70
2018-03-17T09:13:35.586Z,93.60
2018-03-17T09:16:01.655Z,93.20
2018-03-17T09:18:27.748Z,93.30
2018-03-17T09:20:53.827Z,92.10
2018-03-17T09:23:20.646Z,92.80
2018-03-17T09:25:46.723Z,92.80
2018-03-17T09:28:13.551Z,92.70
2018-03-17T09:30:39.627Z,92.30
2018-03-17T09:33:05.699Z,92.00
2018-03-17T09:35:31.766Z,92.90
2018-03-17T09:37:57.839Z,92.70
2018-03-17T09:40:23.923Z,92.50
2018-03-17T09:42:49.992Z,91.50
2018-03-17T09:45:16.810Z,92.80
2018-03-17T09:47:42.874Z,92.80
2018-03-17T09:50:08.951Z,91.20
2018-03-17T09:52:35.031Z,93.60
2018-03-17T09:55:01.130Z,92.60
2018-03-17T09:57:27.203Z,92.60
2018-03-17T09:59:54.011Z,93.00
2018-03-17T10:02:20.097Z,93.00
2018-03-17T10:04:46.167Z,92.30
2018-03-17T10:07:12.989Z,90.70
2018-03-17T10:09:39.055Z,90.10
2018-03-17T10:12:05.141Z,91.00
2018-03-17T10:14:31.215Z,91.80
2018-03-17T10:16:57.291Z,92.20
2018-03-17T10:19:23.358Z,91.20
2018-03-17T10:21:49.456Z,90.50
2018-03-17T10:24:15.530Z,92.20
2018-03-17T10:26:41.612Z,91.00
2018-03-17T10:29:08.444Z,92.50
2018-03-17T10:31:34.520Z,92.50
2018-03-17T10:34:00.592Z,92.20
2018-03-17T10:36:26.714Z,92.70
2018-03-17T10:38:52.790Z,91.90
2018-03-17T10:41:18.868Z,93.30
2018-03-17T10:43:45.042Z,91.80
2018-03-17T10:46:11.072Z,90.80
2018-03-17T10:48:37.146Z,92.30
2018-03-17T10:51:03.227Z,91.90
2018-03-17T10:53:29.319Z,92.70
2018-03-17T10:55:55.424Z,91.40
2018-03-17T10:58:21.610Z,90.50
2018-03-17T11:00:50.671Z,92.70
2018-03-17T11:03:16.757Z,93.30
2018-03-17T11:05:42.851Z,92.20
2018-03-17T11:08:08.947Z,93.40
2018-03-17T11:10:35.779Z,91.70
2018-03-17T11:13:01.869Z,91.60
2018-03-17T11:15:28.014Z,91.10
2018-03-17T11:17:54.120Z,91.40
2018-03-17T11:20:20.215Z,91.60
2018-03-17T11:22:47.804Z,92.20
2018-03-17T11:25:13.899Z,91.90
2018-03-17T11:27:39.995Z,93.30
2018-03-17T11:30:19.511Z,93.50
2018-03-17T11:32:45.603Z,92.90
2018-03-17T11:35:11.686Z,92.80
2018-03-17T11:37:37.799Z,94.30
2018-03-17T11:40:03.896Z,92.10
2018-03-17T11:42:30.730Z,91.60
2018-03-17T11:44:56.822Z,91.60
2018-03-17T11:47:22.911Z,91.80
2018-03-17T11:49:49.000Z,90.30
2018-03-17T11:52:15.099Z,93.40
2018-03-17T11:54:41.921Z,90.30
2018-03-17T11:57:08.009Z,90.70
2018-03-17T11:59:34.081Z,91.00
2018-03-17T12:02:00.160Z,91.00
2018-03-17T12:04:26.983Z,93.40
2018-03-17T12:06:53.072Z,93.40
2018-03-17T12:09:19.882Z,92.30
2018-03-17T12:11:45.951Z,92.20
2018-03-17T12:14:12.775Z,92.90
2018-03-17T12:16:38.850Z,92.90
2018-03-17T12:19:05.032Z,91.00
2018-03-17T12:21:31.139Z,86.70
2018-03-17T12:23:57.261Z,91.00
2018-03-17T12:26:23.318Z,92.00
2018-03-17T12:28:49.387Z,90.60
2018-03-17T12:31:15.467Z,92.20
2018-03-17T12:33:42.283Z,91.70
2018-03-17T12:36:08.368Z,91.60
2018-03-17T12:38:35.179Z,89.30
2018-03-17T12:41:01.268Z,89.70
2018-03-17T12:43:27.345Z,91.20
2018-03-17T12:45:53.422Z,90.20
2018-03-17T12:48:20.239Z,92.50
2018-03-17T12:50:46.320Z,92.20
2018-03-17T12:53:13.136Z,91.40
2018-03-17T12:55:39.232Z,91.40
2018-03-17T12:58:05.319Z,92.00
2018-03-17T13:00:31.431Z,91.90
2018-03-17T13:02:57.514Z,91.30
2018-03-17T13:05:23.599Z,91.60
2018-03-17T13:07:49.683Z,92.40
2018-03-17T13:10:16.514Z,91.40
2018-03-17T13:12:42.608Z,91.50
2018-03-17T13:15:08.698Z,90.20
2018-03-17T13:17:34.795Z,91.10
2018-03-17T13:20:00.876Z,92.10
2018-03-17T13:22:45.649Z,92.10
2018-03-17T13:25:11.733Z,92.30
2018-03-17T13:30:46.315Z,91.80
2018-03-17T13:33:12.397Z,90.70
2018-03-17T13:35:57.121Z,91.20
2018-03-17T13:38:23.237Z,92.50
2018-03-17T13:40:49.279Z,91.70
2018-03-17T13:43:16.094Z,92.20
2018-03-17T13:45:42.192Z,92.20
2018-03-17T13:48:08.287Z,92.80
2018-03-17T13:50:35.848Z,90.50
2018-03-17T13:53:01.944Z,90.60
2018-03-17T13:55:28.029Z,91.40
2018-03-17T13:57:54.114Z,90.90
2018-03-17T14:00:20.191Z,93.10
2018-03-17T14:02:46.285Z,92.10
2018-03-17T14:05:12.371Z,93.10
2018-03-17T14:07:38.467Z,91.60
2018-03-17T14:10:04.535Z,91.90
2018-03-17T14:12:30.647Z,90.30
2018-03-17T14:14:56.735Z,91.80
2018-03-17T14:17:22.830Z,91.60
2018-03-17T14:19:48.915Z,92.50
2018-03-17T14:22:27.581Z,91.50
2018-03-17T14:24:53.675Z,91.50
2018-03-17T14:27:20.504Z,90.70
2018-03-17T14:29:46.586Z,90.50
2018-03-17T14:32:13.420Z,92.20
2018-03-17T14:34:39.512Z,92.20
2018-03-17T14:37:05.586Z,92.50
2018-03-17T14:39:31.673Z,92.10
2018-03-17T14:45:23.535Z,91.50
2018-03-17T14:47:50.359Z,91.50
2018-03-17T14:50:16.452Z,91.40
2018-03-17T14:52:42.523Z,90.80
2018-03-17T14:55:08.586Z,92.60
2018-03-17T14:57:34.654Z,92.60
2018-03-17T15:00:00.718Z,92.80
2018-03-17T15:02:26.783Z,92.20
2018-03-17T15:04:52.843Z,93.30
2018-03-17T15:07:19.670Z,92.30
2018-03-17T15:09:45.751Z,92.10
2018-03-17T15:12:12.572Z,92.30
2018-03-17T15:14:38.643Z,92.30
2018-03-17T15:17:05.459Z,91.50
2018-03-17T15:19:33.015Z,92.70
2018-03-17T15:21:59.090Z,92.60
2018-03-17T15:24:25.903Z,92.60
2018-03-17T15:26:52.015Z,92.60
2018-03-17T15:29:18.800Z,92.30
2018-03-17T15:31:44.866Z,92.40
2018-03-17T15:34:10.927Z,92.40
2018-03-17T15:36:37.738Z,93.30
2018-03-17T15:39:03.812Z,93.70
2018-03-17T15:41:30.630Z,92.10
2018-03-17T15:43:56.714Z,92.20
2018-03-17T15:46:22.782Z,93.30
2018-03-17T15:48:48.851Z,92.60
2018-03-17T15:51:14.936Z,91.40
2018-03-17T15:53:41.023Z,90.80
2018-03-17T15:56:07.112Z,91.90
2018-03-17T15:58:36.660Z,92.40
2018-03-17T16:01:02.709Z,92.70
2018-03-17T16:03:28.796Z,93.40
2018-03-17T16:05:54.887Z,91.50
2018-03-17T16:08:20.976Z,91.60
2018-03-17T16:10:47.064Z,92.00
2018-03-17T16:13:13.138Z,93.20
2018-03-17T16:15:39.273Z,93.40
2018-03-17T16:18:06.104Z,92.10
2018-03-17T16:20:32.179Z,92.20
2018-03-17T16:22:58.276Z,91.80
2018-03-17T16:25:24.360Z,92.90
2018-03-17T16:27:50.464Z,91.50
2018-03-17T16:30:17.278Z,92.10
2018-03-17T16:32:43.369Z,92.10
2018-03-17T16:35:10.207Z,92.30
2018-03-17T16:37:36.298Z,92.30
2018-03-17T16:40:02.378Z,93.30
2018-03-17T16:42:28.476Z,92.60
2018-03-17T16:44:54.559Z,92.20
2018-03-17T16:47:21.443Z,92.00
2018-03-17T16:49:47.526Z,92.40
2018-03-17T16:52:13.627Z,92.20
2018-03-17T16:54:39.718Z,91.10
2018-03-17T16:57:12.683Z,92.70
2018-03-17T16:59:38.751Z,92.90
2018-03-17T17:02:05.563Z,92.00
2018-03-17T17:04:31.644Z,92.00
2018-03-17T17:06:57.711Z,91.10
2018-03-17T17:09:24.529Z,91.20
2018-03-17T17:11:50.602Z,91.10
2018-03-17T17:14:17.423Z,92.10
2018-03-17T17:16:43.501Z,92.20
2018-03-17T17:19:09.575Z,92.60
2018-03-17T17:21:35.651Z,91.00
2018-03-17T17:24:01.744Z,90.40
2018-03-17T17:26:27.815Z,91.80
2018-03-17T17:28:53.904Z,91.80
2018-03-17T17:31:19.972Z,90.80
2018-03-17T17:33:46.043Z,91.70
2018-03-17T17:36:12.867Z,92.70
2018-03-17T17:38:38.943Z,92.70
2018-03-17T17:41:05.767Z,91.80
2018-03-17T17:43:31.852Z,91.90
2018-03-17T17:45:57.963Z,89.10
2018-03-17T17:48:24.033Z,91.50
2018-03-17T17:50:50.112Z,91.30
2018-03-17T17:53:16.260Z,91.40
2018-03-17T17:55:42.339Z,92.90
2018-03-17T17:58:08.424Z,92.60
2018-03-17T18:00:34.519Z,92.80
2018-03-17T18:03:00.612Z,90.10
2018-03-17T18:05:28.172Z,92.50
2018-03-17T18:07:54.259Z,92.50
2018-03-17T18:10:20.347Z,91.30
2018-03-17T18:12:46.443Z,92.10
2018-03-17T18:15:12.586Z,91.50
2018-03-17T18:17:39.384Z,91.20
2018-03-17T18:20:06.220Z,91.80
2018-03-17T18:22:32.323Z,91.90
2018-03-17T18:24:58.411Z,91.30
2018-03-17T18:27:24.509Z,92.00
2018-03-17T18:29:50.598Z,91.80
2018-03-17T18:32:16.690Z,90.20
2018-03-17T18:34:42.788Z,92.40
2018-03-17T18:37:09.634Z,92.30
2018-03-17T18:39:43.017Z,90.80
2018-03-17T18:42:09.112Z,91.50
2018-03-17T18:44:35.211Z,89.90
2018-03-17T18:47:01.291Z,91.10
2018-03-17T18:49:27.372Z,91.70
2018-03-17T18:51:53.459Z,92.70
2018-03-17T18:54:19.551Z,91.40
2018-03-17T18:56:45.666Z,90.90
2018-03-17T18:59:11.744Z,91.80
2018-03-17T19:01:37.824Z,91.10
2018-03-17T19:04:03.915Z,92.30
2018-03-17T19:06:30.002Z,93.10
2018-03-17T19:08:56.084Z,91.30
2018-03-17T19:11:22.172Z,90.90
2018-03-17T19:13:48.266Z,91.30
2018-03-17T19:16:15.095Z,92.00
2018-03-17T19:18:41.191Z,92.00
2018-03-17T19:21:07.296Z,91.00
2018-03-17T19:23:33.392Z,91.70
2018-03-17T19:25:59.492Z,92.30
2018-03-17T19:28:25.595Z,91.00
2018-03-17T19:30:51.676Z,91.30
2018-03-17T19:33:17.768Z,92.40
2018-03-17T19:35:43.867Z,92.50
2018-03-17T19:38:10.035Z,92.60
2018-03-17T19:40:36.083Z,92.10
2018-03-17T19:43:02.159Z,92.00
2018-03-17T19:45:28.259Z,92.00
2018-03-17T19:47:54.339Z,92.00
2018-03-17T19:50:20.428Z,91.10
2018-03-17T19:52:46.520Z,90.40
2018-03-17T19:55:12.607Z,91.10
2018-03-17T19:57:38.700Z,92.10
2018-03-17T20:00:04.787Z,90.70
2018-03-17T20:02:30.883Z,91.20
2018-03-17T20:04:56.986Z,91.90
2018-03-17T20:07:23.809Z,90.60
2018-03-17T20:10:21.463Z,90.60
2018-03-17T20:12:47.548Z,91.20
2018-03-17T20:15:13.635Z,91.90
2018-03-17T20:17:39.721Z,92.60
2018-03-17T20:20:05.810Z,92.30
2018-03-17T20:22:31.903Z,91.20
2018-03-17T20:24:58.739Z,90.70
2018-03-17T20:27:24.831Z,90.50
2018-03-17T20:29:50.924Z,90.90
2018-03-17T20:32:17.764Z,90.40
2018-03-17T20:34:43.849Z,90.20
2018-03-17T20:37:09.968Z,91.10
2018-03-17T20:39:36.799Z,90.40
2018-03-17T20:42:02.879Z,90.60
2018-03-17T20:44:28.971Z,92.40
2018-03-17T20:46:55.064Z,89.80
2018-03-17T20:49:21.158Z,90.20
2018-03-17T20:51:47.227Z,90.30
2018-03-17T20:54:13.324Z,92.00
2018-03-17T20:56:39.410Z,92.80
2018-03-17T20:59:05.512Z,91.40
2018-03-17T21:01:32.332Z,91.10
2018-03-17T21:03:58.452Z,91.10
2018-03-17T21:06:24.536Z,91.40
2018-03-17T21:08:50.618Z,90.20
2018-03-17T21:11:16.731Z,91.80
2018-03-17T21:13:43.568Z,91.70
2018-03-17T21:16:10.403Z,91.00
2018-03-17T21:18:36.492Z,90.90
2018-03-17T21:21:02.579Z,91.40
2018-03-17T21:23:28.668Z,90.60
2018-03-17T21:25:54.766Z,90.60
2018-03-17T21:28:20.860Z,90.70
2018-03-17T21:30:46.947Z,90.40
2018-03-17T21:33:13.071Z,89.40
2018-03-17T21:35:39.153Z,89.10
2018-03-17T21:38:05.240Z,90.60
2018-03-17T21:49:57.645Z,91.60
2018-03-17T21:52:23.767Z,91.20
2018-03-17T21:54:51.634Z,91.70
2018-03-17T21:57:17.707Z,91.70
2018-03-17T21:59:43.784Z,91.50
2018-03-17T22:02:09.850Z,91.90
2018-03-17T22:10:59.007Z,90.10
2018-03-17T22:16:34.223Z,90.60
2018-03-17T22:19:00.303Z,90.70
2018-03-17T22:24:37.191Z,87.90
2018-03-17T22:30:24.432Z,90.20
2018-03-17T22:32:51.295Z,91.50
2018-03-17T22:35:27.720Z,91.50
2018-03-17T22:40:58.857Z,90.70
2018-03-17T22:58:53.900Z,88.50
2018-03-17T23:01:20.102Z,90.00
2018-03-17T23:03:54.151Z,86.10
2018-03-17T23:06:52.161Z,85.80
2018-03-17T23:09:18.336Z,89.00
2018-03-17T23:12:12.088Z,90.50
2018-03-17T23:14:38.267Z,90.00
2018-03-17T23:20:32.351Z,88.50
2018-03-17T23:23:23.234Z,87.80
2018-03-17T23:26:01.072Z,90.20
2018-03-17T23:28:27.187Z,89.10
2018-03-17T23:31:07.623Z,90.50
2018-03-17T23:37:00.288Z,88.00
2018-03-17T23:39:50.871Z,87.30
2018-03-17T23:42:17.694Z,86.00
2018-03-17T23:45:12.079Z,86.10
2018-03-17T23:48:10.979Z,89.20
2018-03-17T23:50:37.078Z,85.80
2018-03-17T23:53:03.911Z,89.70
2018-03-17T23:55:30.015Z,89.60
